Time;durP1;ratioP1;P1;durP2;ratioP2;P2;SDS_P1;SDS_P2;PMS_P1;PMS_P2;Temp;Humidity;BMP_temperature;BMP_pressure;BME280_temperature;BME280_humidity;BME280_pressure;Samples;Min_cycle;Max_cycle;Signal;HPM_P1;HPM_P2
2023/01/17 00:01:10;;;;;;;5.63;2.85;;;;;;;;;;5095370;28;20041;-67
2023/01/17 00:11:51;;;;;;;8.43;3.38;;;;;;;;;;5095330;28;20027;-66
2023/01/17 00:14:17;;;;;;;10.25;3.42;;;;;;;;;;5095791;28;20106;-66
2023/01/17 00:16:43;;;;;;;6.65;2.90;;;;;;;;;;5095904;28;20426;-66
2023/01/17 01:35:56;;;;;;;5.95;1.75;;;;;;;;;;5094609;28;20028;-67
2023/01/17 01:38:23;;;;;;;6.78;2.13;;;;;;;;;;5093217;28;20112;-67
2023/01/17 01:40:50;;;;;;;8.23;2.17;;;;;;;;;;5092919;28;20487;-67
2023/01/17 01:43:17;;;;;;;5.22;2.20;;;;;;;;;;5094227;28;20170;-68
2023/01/17 01:45:45;;;;;;;7.65;2.33;;;;;;;;;;5093917;28;20118;-67
2023/01/17 01:48:19;;;;;;;10.52;2.58;;;;;;;;;;5092650;28;20437;-67
2023/01/17 01:50:47;;;;;;;6.18;2.28;;;;;;;;;;5092713;28;20460;-67
2023/01/17 01:53:13;;;;;;;8.40;2.28;;;;;;;;;;5093803;28;20081;-67
2023/01/17 01:55:39;;;;;;;6.70;2.35;;;;;;;;;;5092362;28;20431;-66
2023/01/17 01:58:17;;;;;;;8.00;2.08;;;;;;;;;;5092474;28;20472;-68
2023/01/17 02:00:43;;;;;;;7.88;2.30;;;;;;;;;;5092350;28;20065;-67
2023/01/17 02:03:29;;;;;;;7.22;2.30;;;;;;;;;;5093447;28;20047;-67
2023/01/17 02:05:54;;;;;;;8.65;2.53;;;;;;;;;;5092473;28;20035;-65
2023/01/17 02:08:21;;;;;;;7.35;1.98;;;;;;;;;;5093636;28;20468;-67
2023/01/17 02:10:47;;;;;;;5.70;2.40;;;;;;;;;;5092344;28;20024;-67
2023/01/17 02:13:14;;;;;;;4.43;1.63;;;;;;;;;;5091836;28;20545;-67
2023/01/17 02:15:40;;;;;;;8.27;2.20;;;;;;;;;;5093407;28;20047;-67
2023/01/17 02:18:09;;;;;;;5.13;1.45;;;;;;;;;;5091900;28;20381;-67
2023/01/17 02:20:34;;;;;;;6.68;2.17;;;;;;;;;;5093389;28;20028;-67
2023/01/17 02:23:06;;;;;;;9.15;2.50;;;;;;;;;;5092100;28;20088;-68
2023/01/17 02:25:50;;;;;;;5.95;1.80;;;;;;;;;;5093857;28;20630;-70
2023/01/17 02:28:35;;;;;;;3.42;1.33;;;;;;;;;;5093538;28;20012;-66
2023/01/17 02:31:04;;;;;;;7.38;2.08;;;;;;;;;;5093017;28;20020;-67
2023/01/17 02:33:38;;;;;;;3.28;1.70;;;;;;;;;;5093490;28;20145;-66
2023/01/17 02:36:12;;;;;;;7.05;2.22;;;;;;;;;;5091004;28;20028;-67
2023/01/17 02:38:38;;;;;;;7.45;2.25;;;;;;;;;;5094072;28;20372;-68
2023/01/17 02:41:12;;;;;;;10.23;2.90;;;;;;;;;;5094742;28;20031;-66
2023/01/17 02:43:38;;;;;;;8.75;2.80;;;;;;;;;;5094674;28;20020;-68
2023/01/17 02:46:03;;;;;;;6.88;2.70;;;;;;;;;;5094227;28;20477;-68
2023/01/17 02:48:30;;;;;;;9.98;3.63;;;;;;;;;;5094020;28;20090;-68
2023/01/17 02:51:14;;;;;;;10.68;3.63;;;;;;;;;;5093857;28;20109;-67
2023/01/17 02:53:41;;;;;;;6.50;2.80;;;;;;;;;;5094860;28;20464;-68
2023/01/17 02:56:28;;;;;;;4.65;2.40;;;;;;;;;;5092690;28;20047;-69
2023/01/17 02:59:05;;;;;;;4.60;2.35;;;;;;;;;;5093999;28;20095;-65
2023/01/17 03:01:46;;;;;;;6.30;2.58;;;;;;;;;;5092994;28;20534;-65
2023/01/17 03:04:14;;;;;;;10.88;3.53;;;;;;;;;;5094679;28;20052;-67
2023/01/17 03:06:49;;;;;;;10.38;3.10;;;;;;;;;;5093864;28;20035;-67
2023/01/17 03:09:16;;;;;;;9.38;2.75;;;;;;;;;;5091471;28;20016;-65
2023/01/17 03:11:42;;;;;;;7.38;2.28;;;;;;;;;;5093634;28;20074;-65
2023/01/17 03:14:07;;;;;;;4.47;2.10;;;;;;;;;;5093113;28;20020;-66
2023/01/17 03:16:33;;;;;;;4.72;1.85;;;;;;;;;;5093300;28;20016;-66
2023/01/17 03:18:58;;;;;;;4.82;2.00;;;;;;;;;;5092341;28;20523;-66
2023/01/17 03:21:24;;;;;;;3.85;1.70;;;;;;;;;;5092349;28;20016;-67
2023/01/17 03:23:49;;;;;;;4.57;2.28;;;;;;;;;;5091531;28;20016;-65
2023/01/17 03:26:15;;;;;;;2.88;1.50;;;;;;;;;;5092939;28;20028;-66
2023/01/17 03:28:40;;;;;;;4.88;1.65;;;;;;;;;;5091739;28;20437;-67
2023/01/17 03:31:06;;;;;;;5.30;2.10;;;;;;;;;;5091476;28;20070;-65
2023/01/17 03:33:31;;;;;;;5.18;2.40;;;;;;;;;;5091021;28;20540;-66
2023/01/17 03:35:57;;;;;;;3.97;1.48;;;;;;;;;;5092799;28;20153;-66
2023/01/17 03:38:23;;;;;;;3.83;1.65;;;;;;;;;;5091592;28;20488;-65
2023/01/17 03:40:49;;;;;;;5.90;2.53;;;;;;;;;;5091581;28;20492;-67
2023/01/17 03:43:14;;;;;;;6.60;2.35;;;;;;;;;;5092892;28;20020;-68
2023/01/17 03:45:39;;;;;;;3.05;1.60;;;;;;;;;;5091316;28;20028;-66
2023/01/17 03:48:05;;;;;;;5.38;2.40;;;;;;;;;;5095602;28;20028;-66
2023/01/17 03:50:30;;;;;;;6.35;2.78;;;;;;;;;;5100090;28;20027;-68
2023/01/17 03:52:56;;;;;;;8.05;3.00;;;;;;;;;;5097930;28;20020;-68
2023/01/17 03:55:21;;;;;;;8.02;3.10;;;;;;;;;;5096175;28;20417;-66
2023/01/17 03:57:47;;;;;;;10.25;2.70;;;;;;;;;;5095027;28;20035;-68
2023/01/17 04:00:12;;;;;;;14.80;3.30;;;;;;;;;;5094527;28;20035;-68
2023/01/17 04:02:38;;;;;;;10.57;3.22;;;;;;;;;;5095553;28;20079;-68
2023/01/17 04:05:04;;;;;;;12.25;4.60;;;;;;;;;;5097860;28;20020;-68
2023/01/17 04:07:29;;;;;;;5.25;1.48;;;;;;;;;;5099575;28;20460;-68
2023/01/17 04:09:55;;;;;;;11.00;2.70;;;;;;;;;;5095670;28;20027;-67
2023/01/17 04:12:20;;;;;;;11.65;3.05;;;;;;;;;;5094629;28;20038;-67
2023/01/17 04:14:46;;;;;;;6.65;2.67;;;;;;;;;;5096036;28;20529;-66
2023/01/17 04:17:14;;;;;;;7.50;3.03;;;;;;;;;;5094492;28;20020;-70
2023/01/17 04:19:41;;;;;;;3.65;2.15;;;;;;;;;;5095763;28;20544;-68
2023/01/17 04:22:06;;;;;;;6.20;2.65;;;;;;;;;;5095445;28;20100;-67
2023/01/17 04:24:32;;;;;;;4.47;2.28;;;;;;;;;;5095232;28;20454;-71
2023/01/17 04:26:57;;;;;;;3.45;1.30;;;;;;;;;;5095027;28;20389;-68
2023/01/17 04:29:23;;;;;;;8.38;2.55;;;;;;;;;;5094139;28;20106;-66
2023/01/17 04:31:48;;;;;;;8.75;2.17;;;;;;;;;;5094196;28;20539;-66
2023/01/17 04:34:13;;;;;;;5.25;2.42;;;;;;;;;;5095475;28;20027;-68
2023/01/17 04:36:40;;;;;;;8.68;2.25;;;;;;;;;;5094191;28;20020;-67
2023/01/17 04:39:05;;;;;;;7.00;2.95;;;;;;;;;;5094646;28;20016;-68
2023/01/17 04:41:31;;;;;;;7.00;3.00;;;;;;;;;;5095067;28;20122;-68
2023/01/17 04:43:56;;;;;;;9.23;2.90;;;;;;;;;;5093814;28;20016;-67
2023/01/17 04:46:22;;;;;;;6.68;2.58;;;;;;;;;;5095191;28;20366;-68
2023/01/17 04:48:48;;;;;;;7.50;2.03;;;;;;;;;;5095697;28;20051;-67
2023/01/17 04:51:13;;;;;;;9.35;2.80;;;;;;;;;;5093897;28;20113;-67
2023/01/17 04:53:39;;;;;;;9.55;2.25;;;;;;;;;;5095319;28;20018;-68
2023/01/17 04:56:04;;;;;;;5.80;2.03;;;;;;;;;;5094674;28;20024;-68
2023/01/17 04:58:30;;;;;;;9.00;2.58;;;;;;;;;;5093854;28;20111;-68
2023/01/17 05:00:59;;;;;;;6.43;2.20;;;;;;;;;;5096363;28;20423;-68
2023/01/17 05:03:25;;;;;;;4.35;1.95;;;;;;;;;;5094129;28;20071;-66
2023/01/17 05:05:50;;;;;;;6.72;2.00;;;;;;;;;;5094453;28;20067;-69
2023/01/17 05:08:15;;;;;;;3.42;1.33;;;;;;;;;;5097032;28;20494;-67
2023/01/17 05:10:41;;;;;;;6.07;2.15;;;;;;;;;;5094900;28;20020;-67
2023/01/17 05:13:08;;;;;;;4.78;2.40;;;;;;;;;;5094809;28;20471;-67
2023/01/17 05:15:35;;;;;;;5.20;2.17;;;;;;;;;;5095644;28;20024;-66
2023/01/17 05:18:00;;;;;;;5.78;2.05;;;;;;;;;;5094831;28;20035;-66
2023/01/17 05:20:26;;;;;;;7.47;2.58;;;;;;;;;;5094484;28;20024;-67
2023/01/17 05:22:54;;;;;;;6.00;1.30;;;;;;;;;;5094293;28;20023;-67
2023/01/17 05:25:20;;;;;;;7.40;1.75;;;;;;;;;;5093792;28;20032;-67
2023/01/17 05:27:45;;;;;;;2.88;1.25;;;;;;;;;;5092662;28;20453;-68
2023/01/17 05:30:11;;;;;;;7.43;2.42;;;;;;;;;;5092850;28;20024;-67
2023/01/17 05:32:36;;;;;;;3.65;1.27;;;;;;;;;;5094037;28;20012;-68
2023/01/17 05:35:02;;;;;;;2.63;1.50;;;;;;;;;;5094504;28;20020;-67
2023/01/17 05:37:27;;;;;;;6.03;1.73;;;;;;;;;;5093436;28;20020;-67
2023/01/17 05:39:52;;;;;;;4.57;1.52;;;;;;;;;;5092932;28;20365;-70
2023/01/17 05:42:18;;;;;;;8.43;2.38;;;;;;;;;;5094086;28;20075;-67
2023/01/17 05:44:43;;;;;;;5.72;2.15;;;;;;;;;;5094101;28;20012;-67
2023/01/17 05:47:09;;;;;;;3.22;1.63;;;;;;;;;;5094183;28;20461;-68
2023/01/17 05:49:34;;;;;;;5.15;1.52;;;;;;;;;;5093061;28;20023;-69
2023/01/17 05:52:00;;;;;;;3.80;1.80;;;;;;;;;;5094267;28;20016;-67
2023/01/17 05:54:26;;;;;;;2.03;1.00;;;;;;;;;;5093831;28;20028;-66
2023/01/17 05:56:51;;;;;;;5.10;1.85;;;;;;;;;;5092711;28;20468;-68
2023/01/17 05:59:17;;;;;;;2.20;1.25;;;;;;;;;;5094555;28;20016;-66
2023/01/17 06:01:42;;;;;;;2.28;1.30;;;;;;;;;;5093982;28;20024;-67
2023/01/17 06:04:08;;;;;;;3.28;1.27;;;;;;;;;;5091524;28;20050;-67
2023/01/17 06:06:33;;;;;;;5.53;2.10;;;;;;;;;;5093935;28;20028;-70
2023/01/17 06:08:59;;;;;;;4.65;2.35;;;;;;;;;;5095988;28;20069;-69
2023/01/17 06:11:24;;;;;;;5.32;2.13;;;;;;;;;;5096000;28;20016;-73
2023/01/17 06:13:51;;;;;;;5.55;1.48;;;;;;;;;;5096969;28;20095;-68
2023/01/17 06:16:16;;;;;;;5.28;2.95;;;;;;;;;;5095683;28;20012;-68
2023/01/17 06:18:43;;;;;;;9.88;2.65;;;;;;;;;;5093817;28;20487;-67
2023/01/17 06:21:09;;;;;;;5.75;2.67;;;;;;;;;;5093027;28;20044;-69
2023/01/17 06:23:35;;;;;;;4.63;2.25;;;;;;;;;;5091632;28;20081;-68
2023/01/17 06:26:02;;;;;;;3.78;2.60;;;;;;;;;;5092977;28;20062;-67
2023/01/17 06:28:27;;;;;;;10.80;2.67;;;;;;;;;;5092522;28;20031;-68
2023/01/17 06:30:53;;;;;;;6.45;2.30;;;;;;;;;;5093000;28;20020;-69
2023/01/17 06:33:18;;;;;;;7.13;3.00;;;;;;;;;;5092538;28;20099;-67
2023/01/17 06:35:51;;;;;;;3.47;1.83;;;;;;;;;;5092479;28;20019;-67
2023/01/17 06:38:16;;;;;;;4.20;1.63;;;;;;;;;;5091145;28;20016;-67
2023/01/17 06:40:41;;;;;;;7.47;3.17;;;;;;;;;;5092031;28;20016;-69
2023/01/17 06:43:07;;;;;;;10.10;2.55;;;;;;;;;;5092156;28;20008;-68
2023/01/17 06:45:33;;;;;;;4.18;2.05;;;;;;;;;;5092530;28;20472;-67
2023/01/17 06:47:59;;;;;;;6.82;2.45;;;;;;;;;;5090962;28;20024;-68
2023/01/17 06:50:25;;;;;;;3.92;1.58;;;;;;;;;;5091930;28;20115;-69
2023/01/17 06:52:58;;;;;;;3.10;1.48;;;;;;;;;;5090312;28;20560;-68
2023/01/17 06:55:25;;;;;;;4.78;2.83;;;;;;;;;;5092458;28;20029;-67
2023/01/17 06:57:52;;;;;;;2.55;1.40;;;;;;;;;;5092191;28;20019;-70
2023/01/17 07:00:18;;;;;;;2.22;1.55;;;;;;;;;;5091674;28;20032;-68
2023/01/17 07:02:46;;;;;;;4.10;1.70;;;;;;;;;;5092217;28;20048;-70
2023/01/17 07:05:12;;;;;;;6.85;2.85;;;;;;;;;;5091807;28;20399;-68
2023/01/17 07:07:38;;;;;;;4.78;2.45;;;;;;;;;;5091920;28;20108;-69
2023/01/17 07:10:03;;;;;;;4.68;2.72;;;;;;;;;;5091809;28;20024;-69
2023/01/17 07:12:29;;;;;;;4.97;2.15;;;;;;;;;;5091144;28;20017;-69
2023/01/17 07:14:54;;;;;;;8.38;3.33;;;;;;;;;;5092266;28;20518;-69
2023/01/17 07:17:20;;;;;;;8.70;2.90;;;;;;;;;;5093959;28;20013;-72
2023/01/17 07:19:45;;;;;;;4.90;2.25;;;;;;;;;;5092453;28;20023;-67
2023/01/17 07:22:11;;;;;;;8.43;3.80;;;;;;;;;;5092084;28;20020;-69
2023/01/17 07:24:37;;;;;;;6.28;3.40;;;;;;;;;;5094242;28;20075;-71
2023/01/17 07:27:03;;;;;;;3.00;1.67;;;;;;;;;;5094181;28;20415;-70
2023/01/17 07:29:29;;;;;;;6.82;3.67;;;;;;;;;;5095923;28;20016;-70
2023/01/17 07:31:54;;;;;;;6.18;2.90;;;;;;;;;;5094444;28;20526;-70
2023/01/17 07:34:20;;;;;;;5.90;2.40;;;;;;;;;;5095608;28;20024;-70
2023/01/17 07:36:47;;;;;;;5.22;3.67;;;;;;;;;;5094754;28;20020;-71
2023/01/17 07:39:12;;;;;;;9.40;2.30;;;;;;;;;;5095213;28;20024;-70
2023/01/17 07:41:40;;;;;;;6.80;2.22;;;;;;;;;;5094209;28;20085;-70
2023/01/17 07:44:06;;;;;;;7.70;3.53;;;;;;;;;;5093934;28;20016;-71
2023/01/17 07:46:32;;;;;;;4.43;1.98;;;;;;;;;;5095672;28;20032;-71
2023/01/17 07:48:57;;;;;;;4.85;2.20;;;;;;;;;;5095241;28;20081;-69
2023/01/17 07:51:23;;;;;;;4.40;2.08;;;;;;;;;;5094277;28;20062;-71
2023/01/17 07:53:48;;;;;;;5.55;2.53;;;;;;;;;;5095220;28;20008;-71
2023/01/17 07:56:13;;;;;;;8.70;3.42;;;;;;;;;;5093676;28;20020;-70
2023/01/17 07:58:39;;;;;;;14.25;2.30;;;;;;;;;;5094698;28;20012;-69
2023/01/17 08:01:06;;;;;;;4.93;2.38;;;;;;;;;;5095053;28;20020;-71
2023/01/17 08:03:35;;;;;;;7.03;3.10;;;;;;;;;;5096197;28;20476;-70
2023/01/17 08:06:01;;;;;;;7.65;2.55;;;;;;;;;;5097074;28;20087;-70
2023/01/17 08:08:27;;;;;;;3.55;1.90;;;;;;;;;;5095148;28;20541;-70
2023/01/17 08:10:52;;;;;;;6.35;2.08;;;;;;;;;;5096060;28;20286;-69
2023/01/17 08:13:18;;;;;;;4.45;2.65;;;;;;;;;;5094234;28;20020;-70
2023/01/17 08:15:46;;;;;;;6.95;2.67;;;;;;;;;;5095110;28;20522;-69
2023/01/17 08:18:11;;;;;;;8.15;3.38;;;;;;;;;;5096792;28;20020;-69
2023/01/17 08:20:37;;;;;;;4.90;2.38;;;;;;;;;;5097420;28;20065;-69
2023/01/17 08:23:02;;;;;;;10.75;4.07;;;;;;;;;;5096952;28;20116;-70
2023/01/17 08:25:28;;;;;;;7.18;2.53;;;;;;;;;;5094998;28;20039;-69
2023/01/17 08:27:57;;;;;;;6.72;2.95;;;;;;;;;;5096228;28;20023;-69
2023/01/17 08:30:22;;;;;;;4.93;2.80;;;;;;;;;;5095627;28;20486;-69
2023/01/17 08:32:48;;;;;;;9.57;3.38;;;;;;;;;;5095697;28;20049;-71
2023/01/17 08:35:13;;;;;;;4.68;2.90;;;;;;;;;;5094607;28;20027;-70
2023/01/17 08:37:40;;;;;;;4.03;1.77;;;;;;;;;;5093282;28;20111;-69
2023/01/17 08:40:06;;;;;;;13.52;3.20;;;;;;;;;;5095790;28;20020;-68
2023/01/17 08:42:38;;;;;;;9.10;1.75;;;;;;;;;;5095293;28;20089;-69
2023/01/17 08:45:08;;;;;;;3.45;1.90;;;;;;;;;;5093938;28;20024;-67
2023/01/17 08:47:34;;;;;;;5.15;3.08;;;;;;;;;;5095385;28;20476;-68
2023/01/17 08:50:00;;;;;;;4.53;2.35;;;;;;;;;;5093667;28;20389;-70
2023/01/17 08:52:26;;;;;;;3.22;1.88;;;;;;;;;;5093960;28;20046;-69
2023/01/17 08:54:55;;;;;;;4.28;1.58;;;;;;;;;;5095302;28;20023;-68
2023/01/17 08:57:20;;;;;;;3.40;1.88;;;;;;;;;;5095262;28;20472;-68
2023/01/17 08:59:46;;;;;;;11.27;2.55;;;;;;;;;;5094392;28;20064;-70
2023/01/17 09:02:13;;;;;;;7.38;2.72;;;;;;;;;;5092776;28;20056;-71
2023/01/17 09:04:39;;;;;;;7.43;3.40;;;;;;;;;;5093001;28;20036;-68
2023/01/17 09:07:06;;;;;;;3.25;2.03;;;;;;;;;;5094246;28;20496;-68
2023/01/17 09:09:31;;;;;;;4.15;1.90;;;;;;;;;;5094480;28;20099;-68
2023/01/17 09:11:58;;;;;;;10.88;4.35;;;;;;;;;;5094292;28;20054;-69
2023/01/17 09:14:23;;;;;;;2.15;1.58;;;;;;;;;;5093021;28;20110;-69
2023/01/17 09:16:49;;;;;;;6.57;2.95;;;;;;;;;;5093074;28;20116;-67
2023/01/17 09:19:16;;;;;;;6.15;3.13;;;;;;;;;;5094223;28;20087;-69
2023/01/17 09:21:41;;;;;;;9.80;2.20;;;;;;;;;;5094303;28;20058;-67
2023/01/17 09:24:07;;;;;;;6.15;2.97;;;;;;;;;;5092758;28;20020;-69
2023/01/17 09:26:32;;;;;;;7.90;4.50;;;;;;;;;;5094378;28;20040;-72
2023/01/17 09:28:58;;;;;;;6.78;3.72;;;;;;;;;;5111785;28;20052;-70
2023/01/17 09:31:25;;;;;;;8.20;4.20;;;;;;;;;;5094757;28;20024;-69
2023/01/17 09:33:52;;;;;;;9.10;4.55;;;;;;;;;;5095005;28;20553;-71
2023/01/17 09:36:17;;;;;;;8.65;4.07;;;;;;;;;;5094175;28;20020;-69
2023/01/17 09:38:43;;;;;;;14.70;6.07;;;;;;;;;;5093325;28;20461;-68
2023/01/17 09:41:17;;;;;;;11.35;5.35;;;;;;;;;;5093734;28;20028;-70
2023/01/17 09:43:46;;;;;;;7.15;4.00;;;;;;;;;;5091972;28;20035;-69
2023/01/17 09:46:21;;;;;;;7.72;3.10;;;;;;;;;;5093072;28;20062;-69
2023/01/17 09:48:47;;;;;;;7.63;4.78;;;;;;;;;;5093535;28;20091;-69
2023/01/17 09:51:15;;;;;;;5.05;3.03;;;;;;;;;;5093416;28;20059;-69
2023/01/17 09:53:42;;;;;;;12.73;5.72;;;;;;;;;;5091915;28;20016;-69
2023/01/17 09:56:08;;;;;;;5.18;3.42;;;;;;;;;;5093506;28;20023;-70
2023/01/17 09:58:39;;;;;;;7.35;3.78;;;;;;;;;;5093317;28;20020;-68
2023/01/17 10:01:43;;;;;;;7.90;5.28;;;;;;;;;;5093423;28;20041;-67
2023/01/17 10:04:27;;;;;;;16.25;6.05;;;;;;;;;;5013932;28;20053;-68
2023/01/17 10:07:01;;;;;;;7.70;3.38;;;;;;;;;;5030772;28;20567;-66
2023/01/17 10:09:46;;;;;;;10.75;5.18;;;;;;;;;;5070880;28;20074;-69
2023/01/17 10:12:11;;;;;;;10.97;4.97;;;;;;;;;;5093616;28;20091;-70
2023/01/17 10:14:37;;;;;;;12.73;5.45;;;;;;;;;;5094466;28;20040;-70
2023/01/17 10:17:15;;;;;;;7.50;4.57;;;;;;;;;;5090934;28;20032;-69
2023/01/17 10:19:40;;;;;;;10.60;4.38;;;;;;;;;;5090963;28;20094;-69
2023/01/17 10:22:06;;;;;;;11.80;4.72;;;;;;;;;;5093145;28;20418;-70
2023/01/17 10:24:31;;;;;;;10.25;4.18;;;;;;;;;;5094334;28;20162;-71
2023/01/17 10:26:59;;;;;;;9.38;4.15;;;;;;;;;;5095027;28;20024;-70
2023/01/17 10:29:27;;;;;;;8.15;5.07;;;;;;;;;;5093813;28;20533;-70
2023/01/17 10:32:01;;;;;;;10.75;4.45;;;;;;;;;;5092523;28;20020;-69
2023/01/17 10:34:27;;;;;;;8.73;3.05;;;;;;;;;;5092648;28;20016;-69
2023/01/17 10:36:59;;;;;;;14.20;4.65;;;;;;;;;;5091981;28;20028;-70
2023/01/17 10:39:27;;;;;;;9.55;4.38;;;;;;;;;;5093282;28;20456;-69
2023/01/17 10:41:54;;;;;;;7.35;2.58;;;;;;;;;;5092731;28;20130;-69
2023/01/17 10:44:23;;;;;;;8.05;4.75;;;;;;;;;;5093078;28;20039;-72
2023/01/17 10:46:52;;;;;;;8.73;5.07;;;;;;;;;;5092570;28;20082;-69
2023/01/17 10:49:22;;;;;;;14.57;4.88;;;;;;;;;;5092112;28;20095;-70
2023/01/17 10:51:58;;;;;;;12.20;4.88;;;;;;;;;;5090567;28;20017;-73
2023/01/17 10:54:49;;;;;;;10.60;4.53;;;;;;;;;;5090508;28;20504;-75
2023/01/17 10:57:18;;;;;;;10.32;4.95;;;;;;;;;;5091985;28;20082;-75
2023/01/17 10:59:44;;;;;;;7.53;5.28;;;;;;;;;;5096255;28;20024;-76
2023/01/17 11:02:16;;;;;;;12.15;3.15;;;;;;;;;;5096118;28;20447;-74
2023/01/17 11:04:42;;;;;;;14.85;6.80;;;;;;;;;;5096096;28;20020;-71
2023/01/17 11:07:27;;;;;;;12.90;6.25;;;;;;;;;;5094090;28;20039;-73
2023/01/17 11:09:54;;;;;;;16.33;6.22;;;;;;;;;;5094643;28;20104;-65
2023/01/17 11:12:40;;;;;;;14.35;6.45;;;;;;;;;;5095311;28;20047;-61
2023/01/17 11:15:18;;;;;;;12.57;6.72;;;;;;;;;;5094447;28;20619;-60
2023/01/17 11:17:51;;;;;;;14.02;8.05;;;;;;;;;;5093544;28;20422;-61
2023/01/17 11:20:34;;;;;;;15.43;6.85;;;;;;;;;;5096257;28;20027;-58
2023/01/17 11:23:02;;;;;;;6.43;3.08;;;;;;;;;;5096259;28;20027;-58
2023/01/17 11:25:28;;;;;;;0.40;0.40;;;;;;;;;;5097676;28;20035;-59
2023/01/17 11:27:59;;;;;;;0.13;0.13;;;;;;;;;;5097236;28;20486;-60
2023/01/17 11:30:28;;;;;;;1.80;0.85;;;;;;;;;;5095417;28;20081;-59
2023/01/17 11:33:05;;;;;;;0.45;0.30;;;;;;;;;;5096301;28;20012;-58
2023/01/17 11:35:35;;;;;;;9.15;2.35;;;;;;;;;;5095718;28;20034;-57
2023/01/17 11:38:00;;;;;;;1.13;0.90;;;;;;;;;;5095829;28;20461;-57
2023/01/17 11:40:34;;;;;;;0.10;0.10;;;;;;;;;;5095610;28;20024;-57
2023/01/17 11:43:02;;;;;;;1.23;0.45;;;;;;;;;;5095393;28;20569;-54
2023/01/17 11:45:29;;;;;;;0.13;0.13;;;;;;;;;;5095877;28;20031;-58
2023/01/17 11:48:06;;;;;;;3.30;0.85;;;;;;;;;;5095973;28;20110;-55
2023/01/17 11:50:32;;;;;;;0.45;0.20;;;;;;;;;;5094536;28;20111;-56
2023/01/17 11:53:05;;;;;;;0.30;0.30;;;;;;;;;;5095627;28;20456;-58
2023/01/17 11:55:30;;;;;;;0.00;0.00;;;;;;;;;;5095278;28;20062;-55
2023/01/17 11:57:56;;;;;;;14.13;6.90;;;;;;;;;;5094027;28;20539;-56
2023/01/17 12:00:25;;;;;;;13.73;8.30;;;;;;;;;;5095323;28;20020;-56
2023/01/17 12:03:09;;;;;;;22.25;9.02;;;;;;;;;;5095030;28;20104;-60
2023/01/17 12:05:56;;;;;;;8.98;7.47;;;;;;;;;;5093378;28;20373;-56
2023/01/17 12:08:24;;;;;;;16.75;7.68;;;;;;;;;;5094706;28;20024;-57
2023/01/17 12:10:54;;;;;;;10.80;7.63;;;;;;;;;;5095613;28;20059;-57
2023/01/17 12:16:38;;;;;;;0.10;0.10;;;;;;;;;;5095092;28;20046;-59
2023/01/17 12:19:15;;;;;;;14.25;6.57;;;;;;;;;;5094833;28;20085;-59
2023/01/17 12:22:04;;;;;;;16.10;8.35;;;;;;;;;;5095182;28;20024;-57
2023/01/17 12:24:38;;;;;;;14.65;7.88;;;;;;;;;;5065669;28;20032;-59
2023/01/17 12:27:10;;;;;;;17.27;8.63;;;;;;;;;;5095132;28;20024;-59
2023/01/17 12:29:57;;;;;;;1.00;0.52;;;;;;;;;;5093874;28;20051;-61
2023/01/17 12:32:29;;;;;;;0.43;0.43;;;;;;;;;;5094913;28;20056;-59
2023/01/17 12:35:00;;;;;;;0.52;0.52;;;;;;;;;;5095613;28;20065;-60
2023/01/17 12:37:33;;;;;;;0.17;0.10;;;;;;;;;;5095083;28;20127;-60
2023/01/17 12:40:01;;;;;;;0.10;0.10;;;;;;;;;;5094976;28;20157;-59
2023/01/17 12:42:31;;;;;;;14.27;6.82;;;;;;;;;;5094850;28;20012;-58
2023/01/17 12:44:57;;;;;;;13.70;6.05;;;;;;;;;;5094471;28;20027;-59
2023/01/17 12:47:23;;;;;;;14.85;6.20;;;;;;;;;;5094471;28;20012;-59
2023/01/17 12:50:01;;;;;;;11.30;4.32;;;;;;;;;;5094557;28;20028;-59
2023/01/17 12:52:35;;;;;;;12.00;4.97;;;;;;;;;;5095066;28;20040;-60
2023/01/17 12:55:04;;;;;;;11.95;5.18;;;;;;;;;;5094513;28;20023;-60
2023/01/17 12:57:36;;;;;;;0.00;0.00;;;;;;;;;;5094639;28;20095;-61
2023/01/17 13:00:08;;;;;;;0.47;0.47;;;;;;;;;;5094143;28;20031;-59
2023/01/17 13:02:38;;;;;;;0.10;0.10;;;;;;;;;;5094236;28;20595;-60
2023/01/17 13:05:14;;;;;;;6.78;3.55;;;;;;;;;;5094357;28;20024;-63
2023/01/17 13:07:50;;;;;;;9.40;4.38;;;;;;;;;;5095054;28;20069;-60
2023/01/17 13:10:39;;;;;;;10.80;4.53;;;;;;;;;;5094445;28;20074;-54
2023/01/17 13:13:24;;;;;;;0.08;0.08;;;;;;;;;;5094003;28;20070;-52
2023/01/17 13:15:53;;;;;;;3.42;1.42;;;;;;;;;;5094231;28;20070;-54
2023/01/17 13:18:23;;;;;;;0.00;0.00;;;;;;;;;;5094060;28;20020;-57
2023/01/17 13:20:48;;;;;;;0.00;0.00;;;;;;;;;;5094595;28;20024;-58
2023/01/17 13:23:23;;;;;;;0.00;0.00;;;;;;;;;;5095435;28;20027;-60
2023/01/17 13:25:49;;;;;;;5.72;2.97;;;;;;;;;;5095472;28;20032;-59
2023/01/17 13:28:18;;;;;;;4.82;1.90;;;;;;;;;;5094219;28;20028;-60
2023/01/17 13:30:56;;;;;;;6.95;3.10;;;;;;;;;;5094167;28;20020;-58
2023/01/17 13:33:26;;;;;;;4.50;2.08;;;;;;;;;;5094395;28;20468;-59
2023/01/17 13:35:56;;;;;;;6.65;2.60;;;;;;;;;;5094259;28;20428;-60
2023/01/17 13:38:25;;;;;;;6.75;2.63;;;;;;;;;;5094574;28;20013;-59
2023/01/17 13:41:08;;;;;;;6.63;2.28;;;;;;;;;;5094229;28;20378;-60
2023/01/17 13:43:36;;;;;;;7.70;2.63;;;;;;;;;;5093982;28;20038;-60
2023/01/17 13:46:02;;;;;;;0.00;0.00;;;;;;;;;;5093900;28;20066;-60
2023/01/17 13:48:27;;;;;;;0.00;0.00;;;;;;;;;;5093109;28;20043;-58
2023/01/17 13:51:01;;;;;;;0.20;0.20;;;;;;;;;;5094019;28;20468;-59
2023/01/17 13:53:32;;;;;;;0.15;0.15;;;;;;;;;;5092746;28;20357;-60
2023/01/17 13:56:18;;;;;;;9.52;2.78;;;;;;;;;;5093967;28;20028;-60
2023/01/17 13:58:45;;;;;;;5.57;2.42;;;;;;;;;;5079235;28;20043;-62
2023/01/17 14:01:11;;;;;;;6.97;2.90;;;;;;;;;;5094508;28;20019;-60
2023/01/17 14:03:49;;;;;;;8.95;2.55;;;;;;;;;;5093618;28;20051;-58
2023/01/17 14:06:43;;;;;;;6.45;2.70;;;;;;;;;;5093735;28;20036;-59
2023/01/17 14:09:12;;;;;;;6.13;2.88;;;;;;;;;;5079450;28;20042;-59
2023/01/17 14:11:49;;;;;;;7.28;2.40;;;;;;;;;;5091967;28;20419;-58
2023/01/17 14:14:33;;;;;;;7.20;3.08;;;;;;;;;;5092660;28;20038;-57
2023/01/17 14:17:25;;;;;;;10.68;3.63;;;;;;;;;;5092159;28;20103;-59
2023/01/17 14:19:56;;;;;;;8.32;3.63;;;;;;;;;;5092757;28;20098;-57
2023/01/17 14:22:23;;;;;;;6.63;3.30;;;;;;;;;;5092902;28;20040;-56
2023/01/17 14:25:08;;;;;;;7.57;2.67;;;;;;;;;;5092523;28;20127;-56
2023/01/17 14:27:37;;;;;;;9.55;2.85;;;;;;;;;;5093002;28;20042;-56
2023/01/17 14:30:05;;;;;;;5.95;2.53;;;;;;;;;;5092951;28;20476;-57
2023/01/17 14:32:34;;;;;;;9.07;3.70;;;;;;;;;;5092459;28;20095;-56
2023/01/17 14:35:00;;;;;;;9.70;1.98;;;;;;;;;;5091391;28;20020;-56
2023/01/17 14:37:29;;;;;;;14.13;4.53;;;;;;;;;;5092724;28;20091;-56
2023/01/17 14:39:54;;;;;;;11.30;4.35;;;;;;;;;;5091436;28;20016;-56
2023/01/17 14:42:22;;;;;;;10.90;4.10;;;;;;;;;;5092230;28;20030;-56
2023/01/17 14:44:49;;;;;;;9.50;4.25;;;;;;;;;;5092301;28;20020;-57
2023/01/17 14:47:15;;;;;;;8.00;3.80;;;;;;;;;;5092297;28;20032;-56
2023/01/17 14:49:41;;;;;;;9.20;4.25;;;;;;;;;;5092808;28;20069;-55
2023/01/17 14:52:11;;;;;;;6.88;2.28;;;;;;;;;;5092566;28;20033;-56
2023/01/17 14:54:45;;;;;;;10.60;4.80;;;;;;;;;;5092307;28;20495;-56
2023/01/17 14:57:29;;;;;;;10.45;2.92;;;;;;;;;;5091866;28;20020;-57
2023/01/17 15:00:10;;;;;;;2.85;1.38;;;;;;;;;;5092356;28;20024;-59
2023/01/17 15:02:39;;;;;;;8.05;3.08;;;;;;;;;;5092213;28;20056;-57
2023/01/17 15:05:04;;;;;;;8.80;4.13;;;;;;;;;;5090478;28;20073;-57
2023/01/17 15:07:31;;;;;;;12.25;2.85;;;;;;;;;;5092495;28;20430;-56
2023/01/17 15:09:56;;;;;;;12.85;3.70;;;;;;;;;;5092271;28;20487;-56
2023/01/17 15:12:22;;;;;;;10.38;4.57;;;;;;;;;;5091892;28;20052;-57
2023/01/17 15:14:48;;;;;;;7.45;2.95;;;;;;;;;;5090408;28;20016;-57
2023/01/17 15:17:23;;;;;;;8.80;4.18;;;;;;;;;;5090272;28;20024;-58
2023/01/17 15:19:51;;;;;;;7.07;2.03;;;;;;;;;;5092292;28;20025;-57
2023/01/17 15:22:18;;;;;;;8.65;2.80;;;;;;;;;;5090903;28;20077;-58
2023/01/17 15:24:43;;;;;;;9.70;3.25;;;;;;;;;;5092434;28;20165;-56
2023/01/17 15:27:15;;;;;;;8.95;3.67;;;;;;;;;;5090198;28;20127;-57
2023/01/17 15:29:42;;;;;;;7.40;4.15;;;;;;;;;;5092097;28;20073;-56
2023/01/17 15:32:32;;;;;;;8.75;3.83;;;;;;;;;;5091840;28;20056;-56
2023/01/17 15:35:00;;;;;;;10.05;3.17;;;;;;;;;;5092180;28;20442;-57
2023/01/17 15:37:29;;;;;;;11.05;3.70;;;;;;;;;;5090426;28;20016;-58
2023/01/17 15:40:04;;;;;;;6.30;3.35;;;;;;;;;;5092894;28;20042;-57
2023/01/17 15:42:30;;;;;;;10.60;4.15;;;;;;;;;;5093587;28;20423;-55
2023/01/17 15:45:01;;;;;;;10.50;4.15;;;;;;;;;;5097036;28;20023;-60
2023/01/17 15:47:28;;;;;;;6.80;2.35;;;;;;;;;;5095861;28;20060;-55
2023/01/17 15:49:53;;;;;;;11.10;2.20;;;;;;;;;;5095912;28;20030;-54
2023/01/17 15:52:20;;;;;;;11.23;3.90;;;;;;;;;;5094072;28;20095;-55
2023/01/17 15:54:49;;;;;;;4.50;1.65;;;;;;;;;;5095009;28;20016;-56
2023/01/17 15:57:30;;;;;;;9.88;5.10;;;;;;;;;;5094451;28;20024;-56
2023/01/17 15:59:55;;;;;;;7.55;4.40;;;;;;;;;;5093921;28;20055;-56
2023/01/17 16:02:23;;;;;;;10.63;5.38;;;;;;;;;;5094954;28;20048;-55
2023/01/17 16:04:49;;;;;;;8.15;3.58;;;;;;;;;;5094411;28;20017;-55
2023/01/17 16:07:19;;;;;;;6.70;2.28;;;;;;;;;;5094544;28;20028;-56
2023/01/17 16:09:44;;;;;;;8.93;4.53;;;;;;;;;;5093369;28;20023;-56
2023/01/17 16:12:10;;;;;;;11.20;4.60;;;;;;;;;;5093166;28;20024;-55
2023/01/17 16:14:35;;;;;;;13.90;4.93;;;;;;;;;;5094757;28;20020;-54
2023/01/17 16:17:02;;;;;;;8.05;4.60;;;;;;;;;;5094679;28;20015;-55
2023/01/17 16:19:28;;;;;;;10.27;3.72;;;;;;;;;;5094643;28;20016;-56